sensor_id;sensor_type;location;lat;lon;timestamp;pressure;altitude;pressure_sealevel;temperature;humidity
74881;BME280;63427;49.654;6.596;2024-03-22T00:00:46;100431.94;;;13.53;39.75
74881;BME280;63427;49.654;6.596;2024-03-22T00:03:11;100427.97;;;13.50;40.09
74881;BME280;63427;49.654;6.596;2024-03-22T00:05:37;100425.89;;;13.48;40.08
74881;BME280;63427;49.654;6.596;2024-03-22T00:08:03;100424.29;;;13.51;39.82
74881;BME280;63427;49.654;6.596;2024-03-22T00:10:28;100427.96;;;13.38;40.02
74881;BME280;63427;49.654;6.596;2024-03-22T00:12:53;100426.80;;;13.46;39.79
74881;BME280;63427;49.654;6.596;2024-03-22T00:15:19;100426.91;;;13.49;39.74
74881;BME280;63427;49.654;6.596;2024-03-22T00:17:45;100424.72;;;13.57;39.52
74881;BME280;63427;49.654;6.596;2024-03-22T00:20:10;100424.45;;;13.49;39.99
74881;BME280;63427;49.654;6.596;2024-03-22T00:22:37;100423.69;;;13.47;39.82
74881;BME280;63427;49.654;6.596;2024-03-22T00:25:01;100419.14;;;13.61;39.64
74881;BME280;63427;49.654;6.596;2024-03-22T00:27:36;100413.58;;;13.43;40.03
74881;BME280;63427;49.654;6.596;2024-03-22T00:29:52;100415.41;;;13.49;39.82
74881;BME280;63427;49.654;6.596;2024-03-22T00:32:17;100414.95;;;13.45;40.06
74881;BME280;63427;49.654;6.596;2024-03-22T00:34:43;100409.66;;;13.60;40.02
74881;BME280;63427;49.654;6.596;2024-03-22T00:37:08;100407.36;;;13.94;39.93
74881;BME280;63427;49.654;6.596;2024-03-22T00:39:39;100401.91;;;13.48;39.95
74881;BME280;63427;49.654;6.596;2024-03-22T00:41:59;100399.78;;;13.27;39.89
74881;BME280;63427;49.654;6.596;2024-03-22T00:45:15;100395.79;;;13.48;39.85
74881;BME280;63427;49.654;6.596;2024-03-22T00:46:51;100394.79;;;13.67;39.49
74881;BME280;63427;49.654;6.596;2024-03-22T00:49:48;100395.44;;;13.57;39.46
74881;BME280;63427;49.654;6.596;2024-03-22T00:51:42;100394.37;;;13.54;40.05
74881;BME280;63427;49.654;6.596;2024-03-22T00:54:36;100389.79;;;13.38;39.94
74881;BME280;63427;49.654;6.596;2024-03-22T00:56:35;100385.91;;;13.84;39.82
74881;BME280;63427;49.654;6.596;2024-03-22T00:58:58;100383.24;;;13.44;40.06
74881;BME280;63427;49.654;6.596;2024-03-22T01:01:36;100384.39;;;13.37;40.08
74881;BME280;63427;49.654;6.596;2024-03-22T01:03:50;100382.04;;;13.29;40.22
74881;BME280;63427;49.654;6.596;2024-03-22T01:06:16;100380.63;;;13.37;40.29
74881;BME280;63427;49.654;6.596;2024-03-22T01:08:41;100376.27;;;13.41;39.79
74881;BME280;63427;49.654;6.596;2024-03-22T01:11:08;100374.98;;;13.39;39.61
74881;BME280;63427;49.654;6.596;2024-03-22T01:13:32;100367.73;;;13.31;39.90
74881;BME280;63427;49.654;6.596;2024-03-22T01:15:57;100360.21;;;13.27;39.84
74881;BME280;63427;49.654;6.596;2024-03-22T01:18:23;100357.14;;;13.27;39.88
74881;BME280;63427;49.654;6.596;2024-03-22T01:21:39;100356.42;;;13.26;40.06
74881;BME280;63427;49.654;6.596;2024-03-22T01:23:29;100355.94;;;13.39;39.85
74881;BME280;63427;49.654;6.596;2024-03-22T01:25:40;100354.26;;;13.48;39.43
74881;BME280;63427;49.654;6.596;2024-03-22T01:28:05;100352.47;;;13.35;40.07
74881;BME280;63427;49.654;6.596;2024-03-22T01:30:31;100352.92;;;13.33;40.10
74881;BME280;63427;49.654;6.596;2024-03-22T01:32:56;100351.82;;;13.46;40.24
74881;BME280;63427;49.654;6.596;2024-03-22T01:35:22;100353.09;;;13.30;39.88
74881;BME280;63427;49.654;6.596;2024-03-22T01:38:01;100355.10;;;13.67;40.39
74881;BME280;63427;49.654;6.596;2024-03-22T01:40:13;100354.01;;;13.34;40.36
74881;BME280;63427;49.654;6.596;2024-03-22T01:42:38;100354.42;;;13.22;40.45
74881;BME280;63427;49.654;6.596;2024-03-22T01:45:04;100351.76;;;13.55;40.16
74881;BME280;63427;49.654;6.596;2024-03-22T01:47:29;100347.85;;;13.59;40.15
74881;BME280;63427;49.654;6.596;2024-03-22T01:53:16;100348.37;;;13.16;40.14
74881;BME280;63427;49.654;6.596;2024-03-22T01:54:46;100350.14;;;13.48;39.74
74881;BME280;63427;49.654;6.596;2024-03-22T01:57:12;100347.23;;;13.47;39.81
74881;BME280;63427;49.654;6.596;2024-03-22T01:59:37;100342.87;;;13.43;39.90
74881;BME280;63427;49.654;6.596;2024-03-22T02:02:02;100340.46;;;13.33;40.25
74881;BME280;63427;49.654;6.596;2024-03-22T02:06:53;100334.60;;;13.51;40.18
74881;BME280;63427;49.654;6.596;2024-03-22T02:09:19;100331.41;;;13.49;40.13
74881;BME280;63427;49.654;6.596;2024-03-22T02:11:45;100334.25;;;13.18;40.42
74881;BME280;63427;49.654;6.596;2024-03-22T02:14:26;100329.42;;;13.41;40.34
74881;BME280;63427;49.654;6.596;2024-03-22T02:16:41;100323.47;;;13.45;40.01
74881;BME280;63427;49.654;6.596;2024-03-22T02:19:01;100313.14;;;13.48;39.82
74881;BME280;63427;49.654;6.596;2024-03-22T02:21:27;100314.41;;;13.44;40.04
74881;BME280;63427;49.654;6.596;2024-03-22T02:23:52;100311.86;;;13.43;40.26
74881;BME280;63427;49.654;6.596;2024-03-22T02:26:18;100309.16;;;13.44;40.05
74881;BME280;63427;49.654;6.596;2024-03-22T02:28:43;100304.70;;;13.47;39.91
74881;BME280;63427;49.654;6.596;2024-03-22T02:31:09;100301.70;;;13.72;40.10
74881;BME280;63427;49.654;6.596;2024-03-22T02:33:34;100299.83;;;13.41;40.24
74881;BME280;63427;49.654;6.596;2024-03-22T02:36:01;100295.96;;;13.69;39.87
74881;BME280;63427;49.654;6.596;2024-03-22T02:38:25;100295.76;;;13.44;39.70
74881;BME280;63427;49.654;6.596;2024-03-22T02:40:53;100294.17;;;13.50;39.64
74881;BME280;63427;49.654;6.596;2024-03-22T02:43:17;100291.74;;;13.34;40.15
74881;BME280;63427;49.654;6.596;2024-03-22T02:45:42;100293.02;;;13.36;39.80
74881;BME280;63427;49.654;6.596;2024-03-22T02:48:08;100289.91;;;13.57;39.71
74881;BME280;63427;49.654;6.596;2024-03-22T02:50:33;100292.90;;;13.06;40.50
74881;BME280;63427;49.654;6.596;2024-03-22T02:52:59;100289.64;;;13.13;40.23
74881;BME280;63427;49.654;6.596;2024-03-22T02:55:24;100283.65;;;13.12;39.99
74881;BME280;63427;49.654;6.596;2024-03-22T02:58:42;100278.62;;;13.36;39.98
74881;BME280;63427;49.654;6.596;2024-03-22T03:00:16;100272.17;;;13.11;39.73
74881;BME280;63427;49.654;6.596;2024-03-22T03:03:37;100271.31;;;13.58;39.76
74881;BME280;63427;49.654;6.596;2024-03-22T03:05:07;100274.53;;;13.00;40.26
74881;BME280;63427;49.654;6.596;2024-03-22T03:07:32;100268.60;;;12.78;40.17
74881;BME280;63427;49.654;6.596;2024-03-22T03:12:23;100249.03;;;12.93;40.40
74881;BME280;63427;49.654;6.596;2024-03-22T03:14:49;100246.81;;;12.99;40.36
74881;BME280;63427;49.654;6.596;2024-03-22T03:17:14;100242.79;;;12.86;40.78
74881;BME280;63427;49.654;6.596;2024-03-22T03:22:06;100239.00;;;12.94;40.50
74881;BME280;63427;49.654;6.596;2024-03-22T03:24:32;100232.89;;;12.91;40.57
74881;BME280;63427;49.654;6.596;2024-03-22T03:26:57;100229.86;;;13.33;40.77
74881;BME280;63427;49.654;6.596;2024-03-22T03:29:22;100224.73;;;13.11;40.98
74881;BME280;63427;49.654;6.596;2024-03-22T03:31:48;100220.66;;;12.71;41.08
74881;BME280;63427;49.654;6.596;2024-03-22T03:34:13;100221.27;;;13.35;40.58
74881;BME280;63427;49.654;6.596;2024-03-22T03:36:39;100216.85;;;13.12;40.94
74881;BME280;63427;49.654;6.596;2024-03-22T03:39:04;100213.93;;;12.98;41.40
74881;BME280;63427;49.654;6.596;2024-03-22T03:41:30;100212.75;;;13.09;40.97
74881;BME280;63427;49.654;6.596;2024-03-22T03:46:21;100206.02;;;12.91;40.73
74881;BME280;63427;49.654;6.596;2024-03-22T03:48:47;100201.50;;;13.42;40.54
74881;BME280;63427;49.654;6.596;2024-03-22T03:51:12;100196.91;;;13.12;40.46
74881;BME280;63427;49.654;6.596;2024-03-22T03:53:38;100194.60;;;12.77;40.83
74881;BME280;63427;49.654;6.596;2024-03-22T03:56:04;100196.13;;;12.82;40.84
74881;BME280;63427;49.654;6.596;2024-03-22T03:58:30;100192.70;;;12.91;40.94
74881;BME280;63427;49.654;6.596;2024-03-22T04:00:55;100188.85;;;13.22;40.77
74881;BME280;63427;49.654;6.596;2024-03-22T04:03:20;100192.36;;;13.01;41.19
74881;BME280;63427;49.654;6.596;2024-03-22T04:08:11;100192.63;;;13.10;40.85
74881;BME280;63427;49.654;6.596;2024-03-22T04:10:37;100194.03;;;13.14;40.85
74881;BME280;63427;49.654;6.596;2024-03-22T04:13:03;100190.69;;;12.92;41.03
74881;BME280;63427;49.654;6.596;2024-03-22T04:17:56;100192.11;;;12.88;40.83
74881;BME280;63427;49.654;6.596;2024-03-22T04:20:19;100192.54;;;13.02;40.94
74881;BME280;63427;49.654;6.596;2024-03-22T04:22:44;100196.80;;;12.61;41.44
74881;BME280;63427;49.654;6.596;2024-03-22T04:25:10;100197.57;;;12.74;41.87
74881;BME280;63427;49.654;6.596;2024-03-22T04:27:36;100202.91;;;12.91;42.13
74881;BME280;63427;49.654;6.596;2024-03-22T04:30:01;100207.85;;;12.73;42.58
74881;BME280;63427;49.654;6.596;2024-03-22T04:32:26;100206.78;;;13.01;41.71
74881;BME280;63427;49.654;6.596;2024-03-22T04:34:52;100208.77;;;13.00;41.84
74881;BME280;63427;49.654;6.596;2024-03-22T04:37:18;100208.11;;;13.00;41.64
74881;BME280;63427;49.654;6.596;2024-03-22T04:42:16;100212.24;;;12.94;41.56
74881;BME280;63427;49.654;6.596;2024-03-22T04:44:37;100208.12;;;13.21;41.37
74881;BME280;63427;49.654;6.596;2024-03-22T04:47:00;100203.91;;;13.28;40.95
74881;BME280;63427;49.654;6.596;2024-03-22T04:49:32;100200.90;;;13.08;40.95
74881;BME280;63427;49.654;6.596;2024-03-22T04:51:51;100200.83;;;12.94;41.04
74881;BME280;63427;49.654;6.596;2024-03-22T04:54:26;100202.66;;;13.28;41.00
74881;BME280;63427;49.654;6.596;2024-03-22T04:56:56;100205.91;;;12.86;41.29
74881;BME280;63427;49.654;6.596;2024-03-22T04:59:07;100206.41;;;13.35;40.92
74881;BME280;63427;49.654;6.596;2024-03-22T05:01:33;100208.35;;;13.48;40.90
74881;BME280;63427;49.654;6.596;2024-03-22T05:03:59;100209.77;;;13.20;41.04
74881;BME280;63427;49.654;6.596;2024-03-22T05:07:01;100205.90;;;13.09;41.42
74881;BME280;63427;49.654;6.596;2024-03-22T05:09:36;100206.08;;;12.90;41.03
74881;BME280;63427;49.654;6.596;2024-03-22T05:11:15;100206.01;;;12.98;40.86
74881;BME280;63427;49.654;6.596;2024-03-22T05:13:41;100203.26;;;13.48;40.60
74881;BME280;63427;49.654;6.596;2024-03-22T05:16:16;100203.01;;;13.19;40.45
74881;BME280;63427;49.654;6.596;2024-03-22T05:18:32;100194.44;;;13.27;40.51
74881;BME280;63427;49.654;6.596;2024-03-22T05:21:01;100189.95;;;12.92;40.96
74881;BME280;63427;49.654;6.596;2024-03-22T05:23:36;100187.71;;;13.30;40.89
74881;BME280;63427;49.654;6.596;2024-03-22T05:25:49;100191.48;;;12.88;41.29
74881;BME280;63427;49.654;6.596;2024-03-22T05:28:32;100194.98;;;13.13;40.89
74881;BME280;63427;49.654;6.596;2024-03-22T05:30:40;100192.33;;;13.60;40.86
74881;BME280;63427;49.654;6.596;2024-03-22T05:33:05;100194.19;;;13.57;41.04
74881;BME280;63427;49.654;6.596;2024-03-22T05:35:31;100194.65;;;13.15;40.61
74881;BME280;63427;49.654;6.596;2024-03-22T05:37:57;100197.79;;;13.08;40.95
74881;BME280;63427;49.654;6.596;2024-03-22T05:40:22;100197.89;;;13.24;41.13
74881;BME280;63427;49.654;6.596;2024-03-22T05:43:01;100196.31;;;13.16;41.36
74881;BME280;63427;49.654;6.596;2024-03-22T05:45:27;100192.30;;;12.87;41.46
74881;BME280;63427;49.654;6.596;2024-03-22T05:47:39;100190.07;;;13.03;41.49
74881;BME280;63427;49.654;6.596;2024-03-22T05:50:06;100187.01;;;13.16;41.01
74881;BME280;63427;49.654;6.596;2024-03-22T05:52:33;100182.80;;;13.39;40.48
74881;BME280;63427;49.654;6.596;2024-03-22T05:54:55;100182.15;;;13.28;40.61
74881;BME280;63427;49.654;6.596;2024-03-22T05:57:21;100178.00;;;13.22;40.98
74881;BME280;63427;49.654;6.596;2024-03-22T05:59:58;100177.60;;;13.20;40.74
74881;BME280;63427;49.654;6.596;2024-03-22T06:02:12;100181.19;;;13.34;40.99
74881;BME280;63427;49.654;6.596;2024-03-22T06:05:01;100182.27;;;13.36;40.87
74881;BME280;63427;49.654;6.596;2024-03-22T06:07:13;100178.48;;;13.40;40.78
74881;BME280;63427;49.654;6.596;2024-03-22T06:09:30;100170.88;;;13.56;40.72
74881;BME280;63427;49.654;6.596;2024-03-22T06:11:54;100165.21;;;13.84;40.73
74881;BME280;63427;49.654;6.596;2024-03-22T06:14:20;100163.53;;;13.62;40.51
74881;BME280;63427;49.654;6.596;2024-03-22T06:16:45;100164.60;;;13.69;40.09
74881;BME280;63427;49.654;6.596;2024-03-22T06:20:05;100159.00;;;13.66;40.27
74881;BME280;63427;49.654;6.596;2024-03-22T06:21:36;100160.41;;;13.34;40.31
74881;BME280;63427;49.654;6.596;2024-03-22T06:24:02;100159.67;;;13.54;40.44
74881;BME280;63427;49.654;6.596;2024-03-22T06:26:37;100155.44;;;13.88;40.56
74881;BME280;63427;49.654;6.596;2024-03-22T06:28:52;100150.16;;;13.64;40.59
74881;BME280;63427;49.654;6.596;2024-03-22T06:31:18;100148.39;;;13.90;40.57
74881;BME280;63427;49.654;6.596;2024-03-22T06:33:43;100140.22;;;13.92;40.59
74881;BME280;63427;49.654;6.596;2024-03-22T06:36:09;100138.98;;;13.81;40.57
74881;BME280;63427;49.654;6.596;2024-03-22T06:38:44;100136.59;;;13.85;40.42
74881;BME280;63427;49.654;6.596;2024-03-22T06:41:00;100135.67;;;14.22;40.52
74881;BME280;63427;49.654;6.596;2024-03-22T06:45:51;100133.00;;;13.93;40.15
74881;BME280;63427;49.654;6.596;2024-03-22T06:48:17;100134.40;;;14.51;40.02
74881;BME280;63427;49.654;6.596;2024-03-22T06:53:08;100133.66;;;14.07;39.54
74881;BME280;63427;49.654;6.596;2024-03-22T06:55:33;100131.99;;;14.22;39.53
74881;BME280;63427;49.654;6.596;2024-03-22T06:57:59;100130.21;;;14.17;39.74
74881;BME280;63427;49.654;6.596;2024-03-22T07:05:15;100128.93;;;14.17;39.40
74881;BME280;63427;49.654;6.596;2024-03-22T07:07:40;100128.62;;;14.05;39.55
74881;BME280;63427;49.654;6.596;2024-03-22T07:10:06;100131.20;;;13.91;39.67
74881;BME280;63427;49.654;6.596;2024-03-22T07:12:42;100131.22;;;13.87;39.81
74881;BME280;63427;49.654;6.596;2024-03-22T07:14:58;100125.60;;;13.96;39.81
74881;BME280;63427;49.654;6.596;2024-03-22T07:17:37;100119.45;;;14.14;39.78
74881;BME280;63427;49.654;6.596;2024-03-22T07:22:13;100103.15;;;14.33;39.45
74881;BME280;63427;49.654;6.596;2024-03-22T07:24:38;100106.79;;;14.47;39.09
74881;BME280;63427;49.654;6.596;2024-03-22T07:27:04;100101.49;;;14.48;39.18
74881;BME280;63427;49.654;6.596;2024-03-22T07:29:29;100102.45;;;14.61;39.27
74881;BME280;63427;49.654;6.596;2024-03-22T07:31:55;100100.95;;;14.98;38.86
74881;BME280;63427;49.654;6.596;2024-03-22T07:34:20;100108.94;;;14.85;38.60
74881;BME280;63427;49.654;6.596;2024-03-22T07:36:46;100111.60;;;15.24;38.80
74881;BME280;63427;49.654;6.596;2024-03-22T07:39:11;100109.52;;;15.43;38.70
74881;BME280;63427;49.654;6.596;2024-03-22T07:41:36;100105.55;;;15.03;38.47
74881;BME280;63427;49.654;6.596;2024-03-22T07:44:02;100103.85;;;15.14;37.84
74881;BME280;63427;49.654;6.596;2024-03-22T07:47:00;100100.95;;;15.25;37.90
74881;BME280;63427;49.654;6.596;2024-03-22T07:49:42;100098.53;;;15.65;37.22
74881;BME280;63427;49.654;6.596;2024-03-22T07:51:18;100093.76;;;15.71;37.54
74881;BME280;63427;49.654;6.596;2024-03-22T07:53:43;100093.57;;;15.70;36.61
74881;BME280;63427;49.654;6.596;2024-03-22T07:56:08;100092.77;;;15.90;36.57
74881;BME280;63427;49.654;6.596;2024-03-22T07:58:34;100094.63;;;15.92;36.68
74881;BME280;63427;49.654;6.596;2024-03-22T08:00:59;100095.20;;;15.96;36.66
74881;BME280;63427;49.654;6.596;2024-03-22T08:03:27;100091.49;;;16.04;35.56
74881;BME280;63427;49.654;6.596;2024-03-22T08:05:50;100094.40;;;16.10;36.22
74881;BME280;63427;49.654;6.596;2024-03-22T08:08:15;100092.30;;;16.59;35.91
74881;BME280;63427;49.654;6.596;2024-03-22T08:10:40;100087.66;;;16.20;35.91
74881;BME280;63427;49.654;6.596;2024-03-22T08:13:05;100086.55;;;16.37;35.63
74881;BME280;63427;49.654;6.596;2024-03-22T08:15:31;100081.40;;;16.51;35.29
74881;BME280;63427;49.654;6.596;2024-03-22T08:17:56;100076.43;;;16.60;34.71
74881;BME280;63427;49.654;6.596;2024-03-22T08:20:22;100069.68;;;16.71;34.47
74881;BME280;63427;49.654;6.596;2024-03-22T08:22:47;100063.26;;;16.44;34.61
74881;BME280;63427;49.654;6.596;2024-03-22T08:25:13;100062.06;;;17.01;33.55
74881;BME280;63427;49.654;6.596;2024-03-22T08:37:20;100045.78;;;17.09;32.77
74881;BME280;63427;49.654;6.596;2024-03-22T08:39:45;100039.65;;;17.82;32.24
74881;BME280;63427;49.654;6.596;2024-03-22T08:44:36;100033.24;;;17.72;32.23
74881;BME280;63427;49.654;6.596;2024-03-22T08:47:02;100032.65;;;17.97;32.19
74881;BME280;63427;49.654;6.596;2024-03-22T08:49:27;100027.82;;;18.00;32.57
74881;BME280;63427;49.654;6.596;2024-03-22T08:54:17;100014.81;;;18.18;31.48
74881;BME280;63427;49.654;6.596;2024-03-22T08:56:43;100014.05;;;18.88;31.32
74881;BME280;63427;49.654;6.596;2024-03-22T08:59:08;100008.71;;;19.33;31.44
74881;BME280;63427;49.654;6.596;2024-03-22T09:03:58;100002.48;;;19.86;29.21
74881;BME280;63427;49.654;6.596;2024-03-22T09:06:24;100001.78;;;19.73;29.30
74881;BME280;63427;49.654;6.596;2024-03-22T09:08:49;100004.20;;;19.83;28.60
74881;BME280;63427;49.654;6.596;2024-03-22T09:16:06;99996.66;;;19.76;29.64
74881;BME280;63427;49.654;6.596;2024-03-22T09:18:31;99993.29;;;18.62;30.03
74881;BME280;63427;49.654;6.596;2024-03-22T09:20:57;99988.09;;;19.43;29.84
74881;BME280;63427;49.654;6.596;2024-03-22T09:23:22;99985.74;;;20.49;29.11
74881;BME280;63427;49.654;6.596;2024-03-22T09:25:48;99982.76;;;20.54;28.17
74881;BME280;63427;49.654;6.596;2024-03-22T09:28:13;99985.73;;;20.94;28.55
74881;BME280;63427;49.654;6.596;2024-03-22T09:30:38;99988.16;;;21.21;28.46
74881;BME280;63427;49.654;6.596;2024-03-22T09:40:20;99968.34;;;21.39;26.73
74881;BME280;63427;49.654;6.596;2024-03-22T09:42:50;99970.13;;;21.43;27.36
74881;BME280;63427;49.654;6.596;2024-03-22T09:45:11;99967.17;;;20.60;27.50
74881;BME280;63427;49.654;6.596;2024-03-22T09:50:07;99953.95;;;22.08;26.84
74881;BME280;63427;49.654;6.596;2024-03-22T09:52:32;99948.96;;;22.86;25.84
74881;BME280;63427;49.654;6.596;2024-03-22T09:54:53;99947.45;;;23.05;25.13
74881;BME280;63427;49.654;6.596;2024-03-22T09:57:18;99946.10;;;22.17;25.52
74881;BME280;63427;49.654;6.596;2024-03-22T10:04:33;99945.31;;;22.68;25.40
74881;BME280;63427;49.654;6.596;2024-03-22T10:06:58;99942.54;;;22.33;25.34
74881;BME280;63427;49.654;6.596;2024-03-22T10:11:49;99931.25;;;22.35;26.01
74881;BME280;63427;49.654;6.596;2024-03-22T10:16:41;99929.25;;;22.21;25.98
74881;BME280;63427;49.654;6.596;2024-03-22T10:19:06;99925.44;;;22.57;25.83
74881;BME280;63427;49.654;6.596;2024-03-22T10:21:32;99924.43;;;22.68;24.91
74881;BME280;63427;49.654;6.596;2024-03-22T10:23:58;99921.26;;;23.04;25.90
74881;BME280;63427;49.654;6.596;2024-03-22T10:26:23;99921.84;;;23.34;25.05
74881;BME280;63427;49.654;6.596;2024-03-22T10:28:49;99918.71;;;23.12;25.35
74881;BME280;63427;49.654;6.596;2024-03-22T10:31:14;99918.20;;;23.42;24.54
74881;BME280;63427;49.654;6.596;2024-03-22T10:33:44;99913.59;;;22.77;25.89
74881;BME280;63427;49.654;6.596;2024-03-22T10:36:14;99903.60;;;22.04;26.12
74881;BME280;63427;49.654;6.596;2024-03-22T10:38:36;99904.99;;;21.80;26.93
74881;BME280;63427;49.654;6.596;2024-03-22T10:40:56;99901.67;;;22.32;26.64
74881;BME280;63427;49.654;6.596;2024-03-22T10:45:51;99894.62;;;22.24;26.49
74881;BME280;63427;49.654;6.596;2024-03-22T10:48:16;99890.33;;;22.01;26.68
74881;BME280;63427;49.654;6.596;2024-03-22T10:50:42;99894.68;;;22.45;26.71
74881;BME280;63427;49.654;6.596;2024-03-22T10:55:32;99884.41;;;22.11;26.54
74881;BME280;63427;49.654;6.596;2024-03-22T10:57:59;99886.39;;;22.76;26.48
74881;BME280;63427;49.654;6.596;2024-03-22T11:02:54;99880.19;;;22.64;26.73
74881;BME280;63427;49.654;6.596;2024-03-22T11:05:16;99881.70;;;21.61;26.88
74881;BME280;63427;49.654;6.596;2024-03-22T11:07:35;99876.79;;;22.05;27.19
74881;BME280;63427;49.654;6.596;2024-03-22T11:10:01;99876.58;;;22.36;28.02
74881;BME280;63427;49.654;6.596;2024-03-22T11:12:26;99875.88;;;21.83;27.00
74881;BME280;63427;49.654;6.596;2024-03-22T11:14:53;99870.99;;;21.54;28.14
74881;BME280;63427;49.654;6.596;2024-03-22T11:17:17;99870.33;;;21.85;27.82
74881;BME280;63427;49.654;6.596;2024-03-22T11:19:42;99866.41;;;21.77;27.61
74881;BME280;63427;49.654;6.596;2024-03-22T11:24:37;99862.55;;;21.70;27.74
74881;BME280;63427;49.654;6.596;2024-03-22T11:27:27;99860.37;;;22.43;27.79
74881;BME280;63427;49.654;6.596;2024-03-22T11:30:04;99860.69;;;22.08;27.62
74881;BME280;63427;49.654;6.596;2024-03-22T11:31:51;99858.67;;;22.46;26.90
74881;BME280;63427;49.654;6.596;2024-03-22T11:34:16;99853.53;;;22.15;27.20
74881;BME280;63427;49.654;6.596;2024-03-22T11:36:41;99854.58;;;22.34;27.68
74881;BME280;63427;49.654;6.596;2024-03-22T11:39:07;99854.15;;;22.60;27.61
74881;BME280;63427;49.654;6.596;2024-03-22T11:43:59;99848.64;;;21.82;26.93
74881;BME280;63427;49.654;6.596;2024-03-22T11:46:23;99845.28;;;21.00;27.66
74881;BME280;63427;49.654;6.596;2024-03-22T11:48:51;99843.37;;;22.13;26.71
74881;BME280;63427;49.654;6.596;2024-03-22T11:51:13;99841.29;;;22.06;27.89
74881;BME280;63427;49.654;6.596;2024-03-22T11:53:39;99838.71;;;21.94;27.51
74881;BME280;63427;49.654;6.596;2024-03-22T11:56:04;99835.62;;;21.47;27.76
74881;BME280;63427;49.654;6.596;2024-03-22T11:58:29;99831.83;;;21.49;27.73
74881;BME280;63427;49.654;6.596;2024-03-22T12:03:36;99824.79;;;21.30;28.13
74881;BME280;63427;49.654;6.596;2024-03-22T12:05:45;99819.48;;;21.30;28.18
74881;BME280;63427;49.654;6.596;2024-03-22T12:08:11;99820.65;;;20.73;28.21
74881;BME280;63427;49.654;6.596;2024-03-22T12:10:37;99819.57;;;20.85;28.40
74881;BME280;63427;49.654;6.596;2024-03-22T12:13:04;99815.40;;;20.49;28.98
74881;BME280;63427;49.654;6.596;2024-03-22T12:15:28;99812.03;;;20.57;29.17
74881;BME280;63427;49.654;6.596;2024-03-22T12:17:53;99810.44;;;20.30;29.88
74881;BME280;63427;49.654;6.596;2024-03-22T12:20:19;99807.55;;;21.04;29.35
74881;BME280;63427;49.654;6.596;2024-03-22T12:22:58;99802.54;;;20.93;29.15
74881;BME280;63427;49.654;6.596;2024-03-22T12:25:15;99797.96;;;21.14;28.89
74881;BME280;63427;49.654;6.596;2024-03-22T12:27:36;99791.74;;;21.47;28.42
74881;BME280;63427;49.654;6.596;2024-03-22T12:30:16;99787.49;;;21.54;28.83
74881;BME280;63427;49.654;6.596;2024-03-22T12:32:27;99780.57;;;20.52;29.06
74881;BME280;63427;49.654;6.596;2024-03-22T12:34:52;99777.48;;;20.63;30.27
74881;BME280;63427;49.654;6.596;2024-03-22T12:37:17;99774.64;;;20.08;30.42
74881;BME280;63427;49.654;6.596;2024-03-22T12:39:48;99766.85;;;20.93;30.80
74881;BME280;63427;49.654;6.596;2024-03-22T12:42:09;99766.71;;;20.96;29.99
74881;BME280;63427;49.654;6.596;2024-03-22T12:44:35;99761.16;;;20.77;29.70
74881;BME280;63427;49.654;6.596;2024-03-22T12:47:00;99758.13;;;20.44;30.69
74881;BME280;63427;49.654;6.596;2024-03-22T12:50:18;99754.20;;;20.47;30.89
74881;BME280;63427;49.654;6.596;2024-03-22T12:54:16;99740.43;;;21.30;30.34
74881;BME280;63427;49.654;6.596;2024-03-22T12:59:07;99727.88;;;21.06;28.81
74881;BME280;63427;49.654;6.596;2024-03-22T13:01:33;99727.83;;;20.67;29.88
74881;BME280;63427;49.654;6.596;2024-03-22T13:06:24;99718.35;;;21.52;29.73
74881;BME280;63427;49.654;6.596;2024-03-22T13:16:16;99704.37;;;23.16;26.48
74881;BME280;63427;49.654;6.596;2024-03-22T13:18:31;99692.89;;;23.78;26.98
74881;BME280;63427;49.654;6.596;2024-03-22T13:21:37;99694.63;;;23.81;25.74
74881;BME280;63427;49.654;6.596;2024-03-22T13:23:22;99686.88;;;24.70;24.96
74881;BME280;63427;49.654;6.596;2024-03-22T13:28:12;99674.39;;;25.50;23.11
74881;BME280;63427;49.654;6.596;2024-03-22T13:30:38;99673.56;;;26.03;22.70
74881;BME280;63427;49.654;6.596;2024-03-22T13:33:04;99667.61;;;26.61;21.75
74881;BME280;63427;49.654;6.596;2024-03-22T13:35:29;99661.69;;;27.30;20.91
74881;BME280;63427;49.654;6.596;2024-03-22T13:37:55;99656.78;;;27.55;19.52
74881;BME280;63427;49.654;6.596;2024-03-22T13:40:37;99659.37;;;27.72;19.07
74881;BME280;63427;49.654;6.596;2024-03-22T13:42:46;99645.54;;;27.61;18.36
74881;BME280;63427;49.654;6.596;2024-03-22T13:45:12;99649.76;;;26.28;19.30
74881;BME280;63427;49.654;6.596;2024-03-22T13:50:04;99638.12;;;26.18;19.18
74881;BME280;63427;49.654;6.596;2024-03-22T13:52:28;99632.44;;;26.35;18.98
74881;BME280;63427;49.654;6.596;2024-03-22T13:54:54;99630.10;;;26.44;18.70
74881;BME280;63427;49.654;6.596;2024-03-22T13:59:51;99619.09;;;25.33;19.79
74881;BME280;63427;49.654;6.596;2024-03-22T14:04:37;99614.27;;;25.09;19.84
74881;BME280;63427;49.654;6.596;2024-03-22T14:09:28;99599.83;;;24.38;20.55
74881;BME280;63427;49.654;6.596;2024-03-22T14:11:54;99592.74;;;25.07;20.56
74881;BME280;63427;49.654;6.596;2024-03-22T14:14:21;99591.55;;;25.75;19.43
74881;BME280;63427;49.654;6.596;2024-03-22T14:16:46;99588.15;;;26.77;19.13
74881;BME280;63427;49.654;6.596;2024-03-22T14:21:37;99572.72;;;27.17;18.15
74881;BME280;63427;49.654;6.596;2024-03-22T14:24:04;99571.42;;;26.15;18.59
74881;BME280;63427;49.654;6.596;2024-03-22T14:26:29;99565.03;;;27.26;19.24
74881;BME280;63427;49.654;6.596;2024-03-22T14:28:55;99561.36;;;25.61;19.94
74881;BME280;63427;49.654;6.596;2024-03-22T14:31:23;99553.38;;;25.78;20.43
74881;BME280;63427;49.654;6.596;2024-03-22T14:33:46;99548.66;;;25.56;19.93
74881;BME280;63427;49.654;6.596;2024-03-22T14:36:12;99551.48;;;26.99;18.62
74881;BME280;63427;49.654;6.596;2024-03-22T14:38:38;99545.73;;;27.67;17.77